Time;durP1;ratioP1;P1;durP2;ratioP2;P2;SDS_P1;SDS_P2;PMS_P1;PMS_P2;Temp;Humidity;BMP_temperature;BMP_pressure;BME280_temperature;BME280_humidity;BME280_pressure;Samples;Min_cycle;Max_cycle;Signal;HPM_P1;HPM_P2
2021/07/27 00:01:49;;;;;;;0.00;0.00;;;;;;;;;;5065035;28;20373;-70
2021/07/27 00:04:14;;;;;;;0.00;0.00;;;;;;;;;;5066048;28;20313;-71
2021/07/27 00:06:39;;;;;;;0.00;0.00;;;;;;;;;;5046908;28;20270;-71
2021/07/27 00:09:05;;;;;;;0.00;0.00;;;;;;;;;;5046744;28;20268;-71
2021/07/27 00:11:30;;;;;;;0.00;0.00;;;;;;;;;;5062638;28;20267;-71
2021/07/27 00:13:55;;;;;;;0.00;0.00;;;;;;;;;;5046166;28;20031;-71
2021/07/27 00:16:20;;;;;;;0.00;0.00;;;;;;;;;;5062197;28;20275;-71
2021/07/27 00:18:45;;;;;;;0.00;0.00;;;;;;;;;;5046566;28;20247;-70
2021/07/27 00:21:11;;;;;;;0.00;0.00;;;;;;;;;;5049777;28;20654;-70
2021/07/27 00:23:37;;;;;;;0.00;0.00;;;;;;;;;;5050896;28;20424;-70
2021/07/27 00:26:05;;;;;;;0.00;0.00;;;;;;;;;;5049258;28;20271;-70
2021/07/27 00:28:30;;;;;;;0.00;0.00;;;;;;;;;;5064408;28;20025;-71
2021/07/27 00:30:55;;;;;;;0.00;0.00;;;;;;;;;;5046581;28;20378;-71
2021/07/27 00:33:20;;;;;;;0.00;0.00;;;;;;;;;;5047933;28;20028;-71
2021/07/27 00:35:46;;;;;;;0.00;0.00;;;;;;;;;;5063422;28;20048;-72
2021/07/27 00:38:23;;;;;;;0.00;0.00;;;;;;;;;;5063649;28;20271;-72
2021/07/27 00:40:48;;;;;;;0.00;0.00;;;;;;;;;;5063117;28;20024;-72
2021/07/27 00:43:14;;;;;;;0.00;0.00;;;;;;;;;;5045914;28;20035;-70
2021/07/27 00:45:40;;;;;;;0.00;0.00;;;;;;;;;;5045534;28;20052;-71
2021/07/27 00:48:05;;;;;;;0.00;0.00;;;;;;;;;;5064716;28;20029;-71
2021/07/27 00:50:30;;;;;;;0.00;0.00;;;;;;;;;;5065319;28;20031;-72
2021/07/27 00:52:58;;;;;;;0.00;0.00;;;;;;;;;;5067675;28;20021;-71
2021/07/27 00:55:25;;;;;;;0.00;0.00;;;;;;;;;;5063035;28;20025;-71
2021/07/27 00:57:50;;;;;;;0.00;0.00;;;;;;;;;;5044558;28;20496;-71
2021/07/27 01:00:15;;;;;;;0.00;0.00;;;;;;;;;;5050451;28;20021;-71
2021/07/27 01:02:42;;;;;;;0.00;0.00;;;;;;;;;;5047285;28;20028;-72
2021/07/27 01:05:08;;;;;;;0.00;0.00;;;;;;;;;;5046209;28;20020;-71
2021/07/27 01:07:33;;;;;;;0.00;0.00;;;;;;;;;;5044440;28;20560;-71
2021/07/27 01:09:58;;;;;;;0.00;0.00;;;;;;;;;;5062593;28;20040;-71
2021/07/27 01:12:23;;;;;;;0.00;0.00;;;;;;;;;;5065221;28;20016;-71
2021/07/27 01:14:49;;;;;;;0.00;0.00;;;;;;;;;;5064021;28;20271;-71
2021/07/27 01:17:14;;;;;;;0.00;0.00;;;;;;;;;;5046248;28;20251;-71
2021/07/27 01:39:21;;;;;;;0.00;0.00;;;;;;;;;;5060707;28;20151;-71
2021/07/27 01:44:30;;;;;;;0.00;0.00;;;;;;;;;;5063317;28;20055;-71
2021/07/27 01:46:55;;;;;;;0.00;0.00;;;;;;;;;;5063148;28;20417;-71
2021/07/27 01:49:21;;;;;;;0.00;0.00;;;;;;;;;;5063979;28;20029;-71
2021/07/27 01:51:46;;;;;;;0.00;0.00;;;;;;;;;;5049261;28;20116;-70
2021/07/27 01:54:15;;;;;;;0.00;0.00;;;;;;;;;;5067443;28;20016;-71
2021/07/27 01:56:42;;;;;;;0.00;0.00;;;;;;;;;;5048336;28;20488;-71
2021/07/27 01:59:10;;;;;;;0.00;0.00;;;;;;;;;;5049149;28;20812;-70
2021/07/27 02:01:35;;;;;;;0.00;0.00;;;;;;;;;;5060627;28;20017;-70
2021/07/27 02:04:00;;;;;;;0.00;0.00;;;;;;;;;;5061430;28;20338;-70
2021/07/27 02:06:26;;;;;;;0.00;0.00;;;;;;;;;;5064226;28;20325;-71
2021/07/27 02:08:53;;;;;;;0.00;0.00;;;;;;;;;;5045830;28;20271;-71
2021/07/27 02:11:24;;;;;;;0.00;0.00;;;;;;;;;;5063111;28;20128;-71
2021/07/27 02:13:50;;;;;;;0.00;0.00;;;;;;;;;;5061529;28;20020;-71
2021/07/27 02:16:16;;;;;;;0.00;0.00;;;;;;;;;;5061438;28;20385;-70
2021/07/27 02:18:41;;;;;;;0.00;0.00;;;;;;;;;;5045337;28;20020;-71
2021/07/27 02:21:06;;;;;;;0.00;0.00;;;;;;;;;;5046224;28;20023;-72
2021/07/27 02:23:32;;;;;;;0.00;0.00;;;;;;;;;;5048144;28;20035;-72
2021/07/27 02:25:57;;;;;;;0.00;0.00;;;;;;;;;;5066932;28;20078;-72
2021/07/27 02:28:22;;;;;;;0.00;0.00;;;;;;;;;;5056623;28;20040;-71
2021/07/27 02:30:52;;;;;;;0.00;0.00;;;;;;;;;;5049491;28;20275;-71
2021/07/27 02:33:20;;;;;;;0.00;0.00;;;;;;;;;;5072961;28;20158;-70
2021/07/27 02:35:45;;;;;;;0.00;0.00;;;;;;;;;;5058591;28;20153;-70
2021/07/27 02:38:11;;;;;;;0.00;0.00;;;;;;;;;;5061238;28;20020;-69
2021/07/27 02:40:36;;;;;;;0.00;0.00;;;;;;;;;;5068676;28;20318;-71
2021/07/27 02:43:02;;;;;;;0.00;0.00;;;;;;;;;;5062215;28;20024;-71
2021/07/27 02:45:27;;;;;;;0.00;0.00;;;;;;;;;;5044591;28;20493;-71
2021/07/27 02:47:53;;;;;;;0.00;0.00;;;;;;;;;;5045854;28;20071;-71
2021/07/27 02:50:18;;;;;;;0.00;0.00;;;;;;;;;;5045679;28;20039;-70
2021/07/27 02:52:43;;;;;;;0.00;0.00;;;;;;;;;;5065232;28;20286;-70
2021/07/27 02:55:09;;;;;;;0.00;0.00;;;;;;;;;;5063634;28;20271;-70
2021/07/27 02:57:34;;;;;;;0.00;0.00;;;;;;;;;;5059172;28;20278;-70
2021/07/27 03:00:00;;;;;;;0.00;0.00;;;;;;;;;;5064265;28;20028;-70
2021/07/27 03:02:34;;;;;;;0.00;0.00;;;;;;;;;;5042232;28;20274;-70
2021/07/27 03:04:59;;;;;;;0.00;0.00;;;;;;;;;;5062072;28;20111;-70
2021/07/27 03:07:33;;;;;;;0.00;0.00;;;;;;;;;;5049416;28;20102;-70
2021/07/27 03:10:20;;;;;;;0.00;0.00;;;;;;;;;;5044352;28;20029;-70
2021/07/27 03:12:46;;;;;;;0.00;0.00;;;;;;;;;;5060104;28;20082;-71
2021/07/27 03:15:11;;;;;;;0.00;0.00;;;;;;;;;;5040753;28;20357;-70
2021/07/27 03:17:37;;;;;;;0.00;0.00;;;;;;;;;;5049268;28;20079;-71
2021/07/27 03:20:03;;;;;;;0.00;0.00;;;;;;;;;;5064688;28;20008;-71
2021/07/27 03:22:28;;;;;;;0.00;0.00;;;;;;;;;;5050734;28;20025;-71
2021/07/27 03:24:53;;;;;;;0.00;0.00;;;;;;;;;;5049529;28;20030;-71
2021/07/27 03:27:19;;;;;;;0.00;0.00;;;;;;;;;;5048186;28;20280;-70
2021/07/27 03:29:44;;;;;;;0.00;0.00;;;;;;;;;;5049881;28;20040;-71
2021/07/27 03:32:09;;;;;;;0.00;0.00;;;;;;;;;;5042629;28;20074;-70
2021/07/27 03:34:34;;;;;;;0.00;0.00;;;;;;;;;;5062199;28;20070;-70
2021/07/27 03:36:59;;;;;;;0.00;0.00;;;;;;;;;;5044947;28;20270;-70
2021/07/27 03:39:25;;;;;;;0.00;0.00;;;;;;;;;;5062479;28;20019;-69
2021/07/27 03:41:50;;;;;;;0.00;0.00;;;;;;;;;;5047685;28;20071;-70
2021/07/27 03:44:16;;;;;;;0.00;0.00;;;;;;;;;;5061393;28;20080;-72
2021/07/27 03:46:44;;;;;;;0.00;0.00;;;;;;;;;;5060404;28;20358;-71
2021/07/27 03:49:09;;;;;;;0.00;0.00;;;;;;;;;;5056565;28;20553;-71
2021/07/27 03:51:34;;;;;;;0.00;0.00;;;;;;;;;;5047845;28;20063;-71
2021/07/27 03:53:59;;;;;;;0.00;0.00;;;;;;;;;;5067561;28;20301;-72
2021/07/27 03:56:25;;;;;;;0.00;0.00;;;;;;;;;;5051213;28;20028;-72
2021/07/27 03:58:50;;;;;;;0.00;0.00;;;;;;;;;;5066597;28;20259;-71
2021/07/27 04:01:15;;;;;;;0.00;0.00;;;;;;;;;;5065522;28;20009;-71
2021/07/27 04:03:40;;;;;;;0.00;0.00;;;;;;;;;;5065348;28;20639;-71
2021/07/27 04:06:06;;;;;;;0.10;0.10;;;;;;;;;;5049823;28;20263;-71
2021/07/27 04:08:31;;;;;;;0.00;0.00;;;;;;;;;;5048800;28;20577;-70
2021/07/27 04:11:00;;;;;;;0.00;0.00;;;;;;;;;;5046569;28;20020;-70
2021/07/27 04:13:25;;;;;;;0.00;0.00;;;;;;;;;;5046537;28;20032;-71
2021/07/27 04:15:51;;;;;;;0.00;0.00;;;;;;;;;;5063601;28;20012;-71
2021/07/27 04:18:16;;;;;;;0.00;0.00;;;;;;;;;;5049365;28;20020;-71
2021/07/27 04:20:41;;;;;;;0.00;0.00;;;;;;;;;;5048931;28;20267;-71
2021/07/27 04:23:06;;;;;;;0.00;0.00;;;;;;;;;;5048568;28;20021;-71
2021/07/27 04:25:32;;;;;;;0.00;0.00;;;;;;;;;;5070185;28;20297;-70
2021/07/27 04:27:59;;;;;;;0.10;0.10;;;;;;;;;;5069083;28;20035;-70
2021/07/27 04:30:25;;;;;;;0.00;0.00;;;;;;;;;;5051073;28;20021;-70
2021/07/27 04:32:50;;;;;;;0.00;0.00;;;;;;;;;;5064471;28;20074;-71
2021/07/27 04:35:15;;;;;;;0.00;0.00;;;;;;;;;;5047190;28;20025;-70
2021/07/27 04:37:40;;;;;;;0.00;0.00;;;;;;;;;;5063834;28;20341;-70
2021/07/27 04:40:08;;;;;;;0.00;0.00;;;;;;;;;;5062799;28;20013;-71
2021/07/27 04:42:34;;;;;;;0.00;0.00;;;;;;;;;;5061977;28;20385;-71
2021/07/27 04:44:59;;;;;;;0.00;0.00;;;;;;;;;;5059982;28;20051;-71
2021/07/27 04:47:24;;;;;;;0.00;0.00;;;;;;;;;;5062569;28;20017;-70
2021/07/27 04:49:49;;;;;;;0.00;0.00;;;;;;;;;;5049936;28;20024;-71
2021/07/27 04:52:20;;;;;;;0.00;0.00;;;;;;;;;;5051868;28;20274;-70
2021/07/27 04:54:51;;;;;;;0.08;0.08;;;;;;;;;;5052316;28;20292;-71
2021/07/27 04:57:16;;;;;;;0.00;0.00;;;;;;;;;;5062783;28;20024;-71
2021/07/27 04:59:41;;;;;;;0.00;0.00;;;;;;;;;;5049572;28;20419;-71
2021/07/27 05:02:07;;;;;;;0.00;0.00;;;;;;;;;;5047731;28;20386;-72
2021/07/27 05:04:34;;;;;;;0.00;0.00;;;;;;;;;;5048357;28;20059;-71
2021/07/27 05:06:59;;;;;;;0.00;0.00;;;;;;;;;;5065749;28;20021;-72
2021/07/27 05:09:25;;;;;;;0.00;0.00;;;;;;;;;;5049941;28;20132;-72
2021/07/27 05:11:50;;;;;;;0.00;0.00;;;;;;;;;;5051741;28;20488;-72
2021/07/27 05:14:16;;;;;;;0.00;0.00;;;;;;;;;;5069082;28;20052;-71
2021/07/27 05:16:41;;;;;;;0.00;0.00;;;;;;;;;;5045961;28;20294;-70
2021/07/27 05:19:09;;;;;;;0.00;0.00;;;;;;;;;;5047361;28;20328;-76
2021/07/27 05:21:34;;;;;;;0.00;0.00;;;;;;;;;;5068369;28;20025;-71
2021/07/27 05:24:00;;;;;;;0.00;0.00;;;;;;;;;;5050340;28;20081;-71
2021/07/27 05:26:25;;;;;;;0.00;0.00;;;;;;;;;;5048720;28;20624;-71
2021/07/27 05:28:50;;;;;;;0.00;0.00;;;;;;;;;;5046961;28;20354;-71
2021/07/27 05:31:15;;;;;;;0.07;0.07;;;;;;;;;;5047899;28;20024;-72
2021/07/27 05:33:40;;;;;;;0.00;0.00;;;;;;;;;;5046641;28;20297;-72
2021/07/27 05:36:06;;;;;;;0.00;0.00;;;;;;;;;;5046437;28;20024;-72
2021/07/27 05:38:31;;;;;;;0.00;0.00;;;;;;;;;;5043043;28;20271;-71
2021/07/27 05:40:56;;;;;;;0.00;0.00;;;;;;;;;;5047485;28;20020;-71
2021/07/27 05:43:22;;;;;;;0.00;0.00;;;;;;;;;;5045921;28;20419;-71
2021/07/27 05:45:47;;;;;;;0.00;0.00;;;;;;;;;;5047672;28;20098;-71
2021/07/27 05:48:12;;;;;;;0.00;0.00;;;;;;;;;;5044810;28;20024;-72
2021/07/27 05:50:37;;;;;;;0.00;0.00;;;;;;;;;;5064252;28;20867;-71
2021/07/27 05:53:02;;;;;;;0.00;0.00;;;;;;;;;;5061031;28;20308;-70
2021/07/27 05:55:28;;;;;;;0.00;0.00;;;;;;;;;;5045589;28;20020;-70
2021/07/27 05:57:53;;;;;;;0.00;0.00;;;;;;;;;;5043608;28;20322;-70
2021/07/27 06:00:18;;;;;;;0.00;0.00;;;;;;;;;;5063914;28;20267;-70
2021/07/27 06:02:43;;;;;;;0.00;0.00;;;;;;;;;;5065736;28;20988;-72
2021/07/27 06:05:09;;;;;;;0.00;0.00;;;;;;;;;;5045550;28;20039;-72
2021/07/27 06:07:36;;;;;;;0.00;0.00;;;;;;;;;;5066657;28;20021;-72
2021/07/27 06:10:01;;;;;;;0.00;0.00;;;;;;;;;;5048590;28;20044;-72
2021/07/27 06:12:26;;;;;;;0.00;0.00;;;;;;;;;;5047364;28;20048;-72
2021/07/27 06:14:51;;;;;;;0.00;0.00;;;;;;;;;;5060654;28;20258;-70
2021/07/27 06:17:16;;;;;;;0.00;0.00;;;;;;;;;;5043662;28;20025;-71
2021/07/27 06:19:42;;;;;;;0.00;0.00;;;;;;;;;;5045349;28;20289;-72
2021/07/27 06:22:07;;;;;;;0.00;0.00;;;;;;;;;;5062002;28;20260;-72
2021/07/27 06:24:32;;;;;;;0.00;0.00;;;;;;;;;;5064638;28;20099;-73
2021/07/27 06:26:57;;;;;;;0.00;0.00;;;;;;;;;;5049565;28;20159;-71
2021/07/27 06:29:23;;;;;;;0.00;0.00;;;;;;;;;;5044103;28;20070;-70
2021/07/27 06:31:48;;;;;;;0.00;0.00;;;;;;;;;;5061861;28;20286;-73
2021/07/27 06:34:13;;;;;;;0.00;0.00;;;;;;;;;;5044321;28;20025;-74
2021/07/27 06:36:38;;;;;;;0.00;0.00;;;;;;;;;;5061483;28;20267;-74
2021/07/27 06:39:04;;;;;;;0.00;0.00;;;;;;;;;;5044709;28;20036;-74
2021/07/27 06:41:29;;;;;;;0.00;0.00;;;;;;;;;;5064593;28;20028;-74
2021/07/27 06:43:54;;;;;;;0.00;0.00;;;;;;;;;;5043296;28;20103;-75
2021/07/27 06:46:19;;;;;;;0.00;0.00;;;;;;;;;;5059672;28;20031;-74
2021/07/27 06:48:45;;;;;;;0.00;0.00;;;;;;;;;;5063076;28;20043;-74
2021/07/27 06:51:11;;;;;;;0.00;0.00;;;;;;;;;;5046488;28;20032;-75
2021/07/27 06:53:38;;;;;;;0.00;0.00;;;;;;;;;;5048409;28;20025;-75
2021/07/27 06:56:04;;;;;;;0.00;0.00;;;;;;;;;;5054054;28;20016;-74
2021/07/27 06:58:29;;;;;;;0.00;0.00;;;;;;;;;;5068259;28;20039;-74
2021/07/27 07:00:55;;;;;;;0.00;0.00;;;;;;;;;;5049380;28;20017;-75
2021/07/27 07:03:20;;;;;;;0.00;0.00;;;;;;;;;;5059918;28;20032;-74
2021/07/27 07:06:21;;;;;;;0.00;0.00;;;;;;;;;;5063615;28;20457;-74
2021/07/27 07:08:48;;;;;;;0.00;0.00;;;;;;;;;;5000648;28;20045;-74
2021/07/27 07:11:19;;;;;;;0.00;0.00;;;;;;;;;;5055010;28;20074;-74
2021/07/27 07:13:46;;;;;;;0.00;0.00;;;;;;;;;;5050073;28;20401;-77
2021/07/27 07:16:12;;;;;;;0.00;0.00;;;;;;;;;;5060506;28;20397;-77
2021/07/27 07:18:40;;;;;;;0.00;0.00;;;;;;;;;;5056517;28;20021;-75
2021/07/27 07:21:05;;;;;;;0.00;0.00;;;;;;;;;;5053237;28;20009;-75
2021/07/27 07:23:34;;;;;;;0.00;0.00;;;;;;;;;;5067441;28;20024;-74
2021/07/27 07:26:04;;;;;;;0.00;0.00;;;;;;;;;;5065018;28;20032;-74
2021/07/27 07:28:34;;;;;;;0.00;0.00;;;;;;;;;;5050794;28;20028;-73
2021/07/27 07:31:02;;;;;;;0.00;0.00;;;;;;;;;;5056544;28;20107;-73
2021/07/27 07:33:27;;;;;;;0.00;0.00;;;;;;;;;;5051927;28;20027;-74
2021/07/27 07:35:53;;;;;;;0.00;0.00;;;;;;;;;;5042940;28;20009;-75
2021/07/27 07:38:18;;;;;;;0.00;0.00;;;;;;;;;;5068668;28;20487;-74
2021/07/27 07:40:43;;;;;;;0.00;0.00;;;;;;;;;;5049984;28;20017;-74
2021/07/27 07:43:08;;;;;;;0.00;0.00;;;;;;;;;;5067219;28;20263;-74
2021/07/27 07:45:33;;;;;;;0.00;0.00;;;;;;;;;;5063657;28;20044;-74
2021/07/27 07:47:59;;;;;;;0.00;0.00;;;;;;;;;;5049693;28;20425;-73
2021/07/27 07:50:28;;;;;;;0.00;0.00;;;;;;;;;;5068992;28;20032;-74
2021/07/27 07:52:57;;;;;;;0.00;0.00;;;;;;;;;;5051288;28;20155;-72
2021/07/27 07:55:22;;;;;;;0.00;0.00;;;;;;;;;;5048007;28;20028;-72
2021/07/27 07:57:48;;;;;;;0.00;0.00;;;;;;;;;;5064190;28;20025;-73
2021/07/27 08:00:13;;;;;;;0.00;0.00;;;;;;;;;;5050019;28;20070;-73
2021/07/27 08:02:38;;;;;;;0.00;0.00;;;;;;;;;;5069761;28;20278;-73
2021/07/27 08:05:04;;;;;;;0.00;0.00;;;;;;;;;;5068468;28;20036;-71
2021/07/27 08:07:29;;;;;;;0.00;0.00;;;;;;;;;;5046824;28;20112;-72
2021/07/27 08:09:54;;;;;;;0.00;0.00;;;;;;;;;;5052198;28;20028;-71
2021/07/27 08:12:20;;;;;;;0.00;0.00;;;;;;;;;;5064124;28;20025;-72
2021/07/27 08:14:45;;;;;;;0.00;0.00;;;;;;;;;;5047090;28;20351;-71
2021/07/27 08:17:10;;;;;;;0.00;0.00;;;;;;;;;;5064835;28;20298;-72
2021/07/27 08:19:36;;;;;;;0.00;0.00;;;;;;;;;;5064805;28;20020;-71
2021/07/27 08:22:01;;;;;;;0.00;0.00;;;;;;;;;;5067938;28;20025;-71
2021/07/27 08:24:26;;;;;;;0.00;0.00;;;;;;;;;;5064855;28;20035;-72
2021/07/27 08:26:51;;;;;;;0.00;0.00;;;;;;;;;;5046244;28;20029;-73
2021/07/27 08:29:17;;;;;;;0.00;0.00;;;;;;;;;;5051542;28;20039;-73
2021/07/27 08:31:42;;;;;;;0.00;0.00;;;;;;;;;;5049804;28;20070;-73
2021/07/27 08:34:07;;;;;;;0.00;0.00;;;;;;;;;;5070679;28;20040;-72
2021/07/27 08:36:32;;;;;;;0.00;0.00;;;;;;;;;;5051432;28;20064;-72
2021/07/27 08:38:58;;;;;;;0.00;0.00;;;;;;;;;;5061335;28;20090;-72
2021/07/27 08:41:27;;;;;;;0.00;0.00;;;;;;;;;;5048917;28;20063;-72
2021/07/27 08:43:55;;;;;;;0.00;0.00;;;;;;;;;;5070743;28;20337;-72
2021/07/27 08:46:20;;;;;;;0.00;0.00;;;;;;;;;;5064961;28;20082;-73
2021/07/27 08:48:46;;;;;;;0.00;0.00;;;;;;;;;;5061696;28;20021;-72
2021/07/27 08:51:12;;;;;;;0.00;0.00;;;;;;;;;;5047144;28;20763;-74
2021/07/27 08:53:37;;;;;;;0.00;0.00;;;;;;;;;;5046610;28;20040;-74
2021/07/27 08:56:03;;;;;;;0.00;0.00;;;;;;;;;;5063405;28;20016;-72
2021/07/27 08:58:28;;;;;;;0.00;0.00;;;;;;;;;;5064694;28;20278;-73
2021/07/27 09:00:55;;;;;;;0.00;0.00;;;;;;;;;;5048860;28;20019;-74
2021/07/27 09:03:21;;;;;;;0.00;0.00;;;;;;;;;;5052538;28;20033;-73
2021/07/27 09:05:46;;;;;;;0.00;0.00;;;;;;;;;;5047778;28;20547;-73
2021/07/27 09:08:12;;;;;;;0.00;0.00;;;;;;;;;;5070317;28;20024;-72
2021/07/27 09:10:38;;;;;;;0.00;0.00;;;;;;;;;;5068578;28;20021;-72
2021/07/27 09:13:04;;;;;;;0.00;0.00;;;;;;;;;;5054457;28;20025;-72
2021/07/27 09:15:34;;;;;;;0.00;0.00;;;;;;;;;;5071110;28;20024;-72
2021/07/27 09:18:02;;;;;;;0.00;0.00;;;;;;;;;;5055092;28;20024;-71
2021/07/27 09:20:33;;;;;;;0.00;0.00;;;;;;;;;;5069562;28;20024;-71
2021/07/27 09:22:59;;;;;;;0.00;0.00;;;;;;;;;;5069107;28;20032;-72
2021/07/27 09:25:26;;;;;;;0.00;0.00;;;;;;;;;;5066561;28;20092;-72
2021/07/27 09:28:01;;;;;;;0.00;0.00;;;;;;;;;;5055932;28;20021;-74
2021/07/27 09:30:26;;;;;;;;;;;;;;;;;;5070830;28;20028;-72
2021/07/27 09:32:51;;;;;;;0.00;0.00;;;;;;;;;;5075178;28;19930;-71
2021/07/27 09:35:20;;;;;;;0.00;0.00;;;;;;;;;;5068172;28;20278;-70
2021/07/27 09:37:48;;;;;;;0.00;0.00;;;;;;;;;;5046202;28;20271;-71
2021/07/27 09:40:14;;;;;;;0.00;0.00;;;;;;;;;;5048568;28;20458;-72
2021/07/27 09:42:39;;;;;;;0.00;0.00;;;;;;;;;;5054265;28;20028;-72
2021/07/27 09:45:04;;;;;;;0.00;0.00;;;;;;;;;;5067474;28;20067;-71
2021/07/27 09:47:30;;;;;;;0.00;0.00;;;;;;;;;;5050157;28;20100;-68
2021/07/27 09:49:55;;;;;;;0.00;0.00;;;;;;;;;;5050429;28;20025;-70
2021/07/27 09:52:20;;;;;;;0.00;0.00;;;;;;;;;;5046428;28;20047;-70
2021/07/27 09:54:46;;;;;;;0.00;0.00;;;;;;;;;;5048420;28;20027;-71
2021/07/27 09:57:13;;;;;;;0.00;0.00;;;;;;;;;;5049341;28;20263;-70
2021/07/27 09:59:38;;;;;;;0.00;0.00;;;;;;;;;;5069072;28;20262;-71
2021/07/27 10:02:04;;;;;;;0.00;0.00;;;;;;;;;;5053348;28;20150;-71
2021/07/27 10:04:43;;;;;;;0.00;0.00;;;;;;;;;;5052523;28;20027;-70
2021/07/27 10:07:08;;;;;;;0.00;0.00;;;;;;;;;;5064011;28;20031;-71
2021/07/27 10:09:35;;;;;;;0.00;0.00;;;;;;;;;;5044235;28;20111;-72
2021/07/27 10:12:06;;;;;;;0.00;0.00;;;;;;;;;;5062496;28;20259;-71
2021/07/27 10:14:39;;;;;;;0.00;0.00;;;;;;;;;;5061949;28;20025;-71
2021/07/27 10:17:04;;;;;;;0.00;0.00;;;;;;;;;;5045192;28;20024;-72
2021/07/27 10:19:36;;;;;;;0.00;0.00;;;;;;;;;;5050831;28;20021;-72
2021/07/27 10:22:02;;;;;;;0.00;0.00;;;;;;;;;;5051112;28;20021;-70
2021/07/27 10:24:34;;;;;;;0.00;0.00;;;;;;;;;;5050739;28;20089;-70
2021/07/27 10:27:05;;;;;;;0.00;0.00;;;;;;;;;;5067426;28;20025;-71
2021/07/27 10:29:30;;;;;;;0.00;0.00;;;;;;;;;;5041469;28;20482;-70
2021/07/27 10:31:55;;;;;;;0.00;0.00;;;;;;;;;;5045683;28;20117;-71
2021/07/27 10:34:30;;;;;;;0.00;0.00;;;;;;;;;;5060830;28;20280;-70
2021/07/27 10:36:58;;;;;;;0.00;0.00;;;;;;;;;;5062324;28;20956;-70
2021/07/27 10:39:23;;;;;;;0.00;0.00;;;;;;;;;;5056727;28;20028;-70
2021/07/27 10:41:50;;;;;;;0.00;0.00;;;;;;;;;;5061328;28;20478;-71
2021/07/27 10:44:15;;;;;;;0.00;0.00;;;;;;;;;;5042865;28;20047;-70
2021/07/27 10:46:44;;;;;;;0.00;0.00;;;;;;;;;;5064709;28;20024;-70
2021/07/27 10:49:14;;;;;;;0.00;0.00;;;;;;;;;;5048469;28;20092;-71
2021/07/27 10:51:39;;;;;;;0.00;0.00;;;;;;;;;;5049271;28;20485;-71
2021/07/27 10:54:04;;;;;;;0.00;0.00;;;;;;;;;;5047235;28;20079;-72
2021/07/27 10:56:31;;;;;;;0.00;0.00;;;;;;;;;;5060964;28;20017;-71
2021/07/27 10:58:56;;;;;;;0.00;0.00;;;;;;;;;;5060569;28;20016;-72
2021/07/27 11:01:21;;;;;;;0.00;0.00;;;;;;;;;;5067139;28;20047;-72
2021/07/27 11:03:48;;;;;;;0.00;0.00;;;;;;;;;;5065417;28;20054;-73
2021/07/27 11:06:13;;;;;;;0.00;0.00;;;;;;;;;;5068174;28;20020;-74
2021/07/27 11:08:39;;;;;;;0.00;0.00;;;;;;;;;;5051240;28;20032;-74
2021/07/27 11:11:08;;;;;;;0.00;0.00;;;;;;;;;;5057931;28;20515;-74
2021/07/27 11:13:33;;;;;;;0.00;0.00;;;;;;;;;;5073264;28;20457;-74
2021/07/27 11:16:00;;;;;;;0.00;0.00;;;;;;;;;;5053452;28;20017;-73
2021/07/27 11:18:27;;;;;;;0.00;0.00;;;;;;;;;;5064245;28;20105;-74
2021/07/27 11:20:53;;;;;;;0.00;0.00;;;;;;;;;;5041774;28;20027;-72
2021/07/27 11:23:18;;;;;;;0.00;0.00;;;;;;;;;;5064832;28;20029;-73
2021/07/27 11:25:49;;;;;;;0.00;0.00;;;;;;;;;;5046500;28;20035;-73
2021/07/27 11:28:14;;;;;;;0.00;0.00;;;;;;;;;;5065512;28;20025;-73
2021/07/27 11:30:40;;;;;;;0.00;0.00;;;;;;;;;;5046035;28;20629;-73
2021/07/27 11:33:09;;;;;;;0.00;0.00;;;;;;;;;;5048305;28;20020;-73
2021/07/27 11:35:43;;;;;;;0.00;0.00;;;;;;;;;;5064212;28;20045;-75
2021/07/27 11:38:09;;;;;;;0.00;0.00;;;;;;;;;;5064900;28;20021;-75
2021/07/27 11:40:34;;;;;;;0.00;0.00;;;;;;;;;;5064842;28;20074;-75
2021/07/27 11:43:00;;;;;;;0.00;0.00;;;;;;;;;;5063515;28;20143;-74
2021/07/27 11:45:25;;;;;;;0.00;0.00;;;;;;;;;;5063914;28;20052;-75
2021/07/27 11:47:50;;;;;;;0.00;0.00;;;;;;;;;;5062917;28;20040;-75
2021/07/27 11:50:25;;;;;;;0.00;0.00;;;;;;;;;;5063604;28;20028;-75
2021/07/27 11:52:54;;;;;;;0.00;0.00;;;;;;;;;;5062260;28;20279;-74
2021/07/27 11:55:20;;;;;;;0.00;0.00;;;;;;;;;;5063488;28;20025;-74
2021/07/27 11:57:51;;;;;;;0.00;0.00;;;;;;;;;;5061748;28;20144;-75
2021/07/27 12:00:17;;;;;;;0.00;0.00;;;;;;;;;;5067080;28;20029;-76
2021/07/27 12:02:43;;;;;;;0.05;0.00;;;;;;;;;;5063557;28;20037;-75
2021/07/27 12:05:08;;;;;;;0.00;0.00;;;;;;;;;;5045751;28;20686;-76
2021/07/27 12:07:34;;;;;;;0.00;0.00;;;;;;;;;;5048217;28;20021;-75
2021/07/27 12:09:59;;;;;;;0.00;0.00;;;;;;;;;;5045479;28;20024;-76
2021/07/27 12:12:24;;;;;;;0.00;0.00;;;;;;;;;;5067936;28;20256;-77
2021/07/27 12:14:49;;;;;;;0.00;0.00;;;;;;;;;;5047246;28;20020;-75
2021/07/27 12:17:15;;;;;;;0.00;0.00;;;;;;;;;;5064257;28;20069;-75
2021/07/27 12:19:41;;;;;;;0.00;0.00;;;;;;;;;;5048742;28;20043;-76
2021/07/27 12:22:07;;;;;;;0.00;0.00;;;;;;;;;;5061504;28;20491;-76
2021/07/27 12:24:32;;;;;;;0.00;0.00;;;;;;;;;;5059668;28;20016;-75
2021/07/27 12:26:58;;;;;;;0.00;0.00;;;;;;;;;;5060802;28;20267;-76
2021/07/27 12:29:29;;;;;;;0.00;0.00;;;;;;;;;;5044347;28;20029;-75
2021/07/27 12:31:54;;;;;;;0.00;0.00;;;;;;;;;;5061137;28;20035;-75
2021/07/27 12:34:19;;;;;;;0.00;0.00;;;;;;;;;;5045242;28;20036;-75
2021/07/27 12:36:44;;;;;;;0.00;0.00;;;;;;;;;;5044326;28;20056;-75
2021/07/27 12:39:09;;;;;;;0.00;0.00;;;;;;;;;;5045874;28;20035;-75
2021/07/27 12:41:35;;;;;;;0.00;0.00;;;;;;;;;;5047220;28;20504;-76
2021/07/27 12:44:00;;;;;;;0.00;0.00;;;;;;;;;;5044573;28;20102;-74
2021/07/27 12:46:25;;;;;;;0.00;0.00;;;;;;;;;;5062698;28;20500;-75
2021/07/27 12:48:51;;;;;;;0.00;0.00;;;;;;;;;;5045910;28;20033;-75
2021/07/27 12:51:19;;;;;;;0.00;0.00;;;;;;;;;;5045093;28;20021;-75
2021/07/27 12:53:45;;;;;;;0.00;0.00;;;;;;;;;;5046202;28;20021;-75
2021/07/27 12:56:11;;;;;;;0.00;0.00;;;;;;;;;;5044574;28;20023;-75
2021/07/27 12:58:36;;;;;;;0.00;0.00;;;;;;;;;;5042430;28;20021;-75
2021/07/27 13:01:01;;;;;;;0.00;0.00;;;;;;;;;;5044975;28;20128;-76
2021/07/27 13:03:26;;;;;;;0.00;0.00;;;;;;;;;;5063431;28;20028;-75
2021/07/27 13:05:55;;;;;;;0.00;0.00;;;;;;;;;;5062786;28;20029;-73
2021/07/27 13:08:20;;;;;;;0.00;0.00;;;;;;;;;;5042428;28;20021;-73
2021/07/27 13:10:49;;;;;;;0.00;0.00;;;;;;;;;;5061136;28;20029;-73
2021/07/27 13:13:14;;;;;;;0.00;0.00;;;;;;;;;;5061213;28;20177;-73
2021/07/27 13:15:40;;;;;;;0.00;0.00;;;;;;;;;;5060099;28;20024;-73
2021/07/27 13:18:05;;;;;;;0.00;0.00;;;;;;;;;;5061418;28;20016;-73
2021/07/27 13:20:31;;;;;;;0.00;0.00;;;;;;;;;;5044728;28;20027;-73
2021/07/27 13:22:56;;;;;;;0.00;0.00;;;;;;;;;;5059934;28;20048;-73
2021/07/27 13:25:21;;;;;;;0.00;0.00;;;;;;;;;;5062817;28;20075;-73
2021/07/27 13:27:46;;;;;;;0.00;0.00;;;;;;;;;;5044700;28;20358;-73
2021/07/27 13:30:11;;;;;;;0.00;0.00;;;;;;;;;;5061073;28;20021;-72
2021/07/27 13:32:37;;;;;;;0.00;0.00;;;;;;;;;;5060234;28;20274;-73
2021/07/27 13:35:02;;;;;;;0.00;0.00;;;;;;;;;;5062048;28;20491;-72
2021/07/27 13:37:27;;;;;;;0.00;0.00;;;;;;;;;;5061422;28;20031;-75
2021/07/27 13:39:52;;;;;;;0.00;0.00;;;;;;;;;;5043363;28;20029;-75
2021/07/27 13:42:18;;;;;;;0.00;0.00;;;;;;;;;;5061240;28;20529;-75
2021/07/27 13:44:43;;;;;;;0.00;0.00;;;;;;;;;;5042730;28;20131;-75
2021/07/27 13:47:08;;;;;;;0.00;0.00;;;;;;;;;;5042492;28;20364;-75
2021/07/27 13:49:33;;;;;;;0.00;0.00;;;;;;;;;;5043840;28;20028;-75
2021/07/27 13:51:58;;;;;;;0.00;0.00;;;;;;;;;;5061803;28;20282;-75
2021/07/27 13:54:24;;;;;;;0.00;0.00;;;;;;;;;;5059108;28;20697;-75
2021/07/27 13:56:49;;;;;;;0.00;0.00;;;;;;;;;;5043303;28;20366;-74
2021/07/27 13:59:15;;;;;;;0.00;0.00;;;;;;;;;;5042506;28;20019;-75
2021/07/27 14:01:40;;;;;;;0.00;0.00;;;;;;;;;;5060992;28;20267;-74
2021/07/27 14:04:05;;;;;;;0.00;0.00;;;;;;;;;;5063644;28;20099;-75
2021/07/27 14:06:30;;;;;;;0.00;0.00;;;;;;;;;;5062735;28;20693;-74
2021/07/27 14:08:55;;;;;;;0.00;0.00;;;;;;;;;;5060040;28;20035;-75
2021/07/27 14:11:21;;;;;;;0.00;0.00;;;;;;;;;;5061197;28;20778;-74
2021/07/27 14:13:46;;;;;;;0.00;0.00;;;;;;;;;;5060783;28;20286;-74
2021/07/27 14:16:12;;;;;;;0.00;0.00;;;;;;;;;;5060420;28;20096;-74
2021/07/27 14:18:37;;;;;;;0.00;0.00;;;;;;;;;;5062620;28;20407;-75
2021/07/27 14:21:02;;;;;;;0.00;0.00;;;;;;;;;;5061131;28;20032;-74
2021/07/27 14:23:28;;;;;;;0.00;0.00;;;;;;;;;;5059303;28;20600;-75
2021/07/27 14:25:53;;;;;;;0.00;0.00;;;;;;;;;;5062776;28;20017;-74
2021/07/27 14:28:18;;;;;;;0.00;0.00;;;;;;;;;;5043702;28;20036;-74
2021/07/27 14:30:43;;;;;;;0.00;0.00;;;;;;;;;;5059805;28;20271;-74
2021/07/27 14:33:10;;;;;;;0.00;0.00;;;;;;;;;;5063467;28;20443;-75
2021/07/27 14:35:36;;;;;;;0.00;0.00;;;;;;;;;;5042392;28;20040;-74
2021/07/27 14:38:01;;;;;;;0.00;0.00;;;;;;;;;;5058896;28;20102;-75
2021/07/27 14:40:26;;;;;;;0.00;0.00;;;;;;;;;;5058321;28;20481;-75
2021/07/27 14:42:52;;;;;;;0.00;0.00;;;;;;;;;;5059573;28;20025;-75
2021/07/27 14:45:17;;;;;;;0.00;0.00;;;;;;;;;;5061628;28;20289;-74
2021/07/27 14:47:42;;;;;;;0.00;0.00;;;;;;;;;;5063679;28;20480;-75
2021/07/27 14:50:09;;;;;;;0.00;0.00;;;;;;;;;;5061222;28;20031;-74
2021/07/27 14:52:34;;;;;;;0.00;0.00;;;;;;;;;;5060493;28;20039;-74
2021/07/27 14:54:59;;;;;;;0.00;0.00;;;;;;;;;;5062205;28;20017;-75
2021/07/27 14:57:24;;;;;;;0.00;0.00;;;;;;;;;;5063815;28;20270;-75
2021/07/27 14:59:50;;;;;;;0.00;0.00;;;;;;;;;;5060007;28;20255;-75